KSLB

Storm Lake Municipal Airport

Storm Lake, Iowa, USA
METAR KSLB 131055Z AUTO 14005KT 3SM BR CLR M05/M05 A2983 RMK AO2
Observed Flight Rules
Dec-13 @ 10:55 UTC (7 minutes ago) Marginal Visual Flight Rules
Wind Visibility Clouds Conditions
140° at 5 knots 3 miles
  • Clear skies
  • Mist
Temperatures Readings
Current -5°C / 23°F
Dewpoint -5°C / 23°F
Humidity 100%
Altimeter 29.83" Hg
Pressure 1010 hPa
Elevation 454
METAR KSLB 131055Z AUTO 14005KT 3SM BR CLR M05/M05 A2983 RMK AO2
Observed Flight Rules
Dec-13 @ 10:55 UTC
(7 minutes ago)
MVFR
Wind Visibility
140° at 5 knots 3 miles
Clouds
  • Clear skies
Conditions
  • Mist
Temperature Dewpoint
-5°C / 23°F -5°C / 23°F
Humidity Altimeter Pressure
100% 29.83" Hg 1010 hPa